createdAt,value
2022-08-20T00:00:44.208Z,85.30
2022-08-20T00:03:11.542Z,85.75
2022-08-20T00:05:38.507Z,85.47
2022-08-20T00:08:04.402Z,87.41
2022-08-20T00:10:30.319Z,86.91
2022-08-20T00:12:54.924Z,87.20
2022-08-20T00:15:24.482Z,88.13
2022-08-20T00:17:48.441Z,87.29
2022-08-20T00:20:15.136Z,87.18
2022-08-20T00:22:38.936Z,86.70
2022-08-20T00:25:02.898Z,88.01
2022-08-20T00:27:26.515Z,88.26
2022-08-20T00:29:50.139Z,89.35
2022-08-20T00:32:15.160Z,89.65
2022-08-20T00:34:38.836Z,89.73
2022-08-20T00:37:02.512Z,88.21
2022-08-20T00:39:26.129Z,88.48
2022-08-20T00:41:49.782Z,87.91
2022-08-20T00:44:16.956Z,88.77
2022-08-20T00:46:43.511Z,88.79
2022-08-20T00:49:12.471Z,87.43
2022-08-20T00:51:41.611Z,87.15
2022-08-20T00:54:11.596Z,88.36
2022-08-20T00:56:36.507Z,86.88
2022-08-20T00:59:00.698Z,87.57
2022-08-20T01:01:24.448Z,86.77
2022-08-20T01:03:48.133Z,86.90
2022-08-20T01:06:13.151Z,87.27
2022-08-20T01:08:37.312Z,86.99
2022-08-20T01:11:10.018Z,89.64
2022-08-20T01:13:33.794Z,87.69
2022-08-20T01:15:58.260Z,89.60
2022-08-20T01:18:26.831Z,89.08
2022-08-20T01:20:53.958Z,89.06
2022-08-20T01:23:28.170Z,88.28
2022-08-20T01:26:00.324Z,89.82
2022-08-20T01:28:31.827Z,87.64
2022-08-20T01:30:56.335Z,87.97
2022-08-20T01:33:20.771Z,87.10
2022-08-20T01:35:45.807Z,86.66
2022-08-20T01:38:10.947Z,88.58
2022-08-20T01:40:56.505Z,89.17
2022-08-20T01:43:21.400Z,92.22
2022-08-20T01:45:46.291Z,89.96
2022-08-20T01:48:14.472Z,89.89
2022-08-20T01:50:43.375Z,91.14
2022-08-20T01:53:16.346Z,91.07
2022-08-20T01:55:40.334Z,92.63
2022-08-20T01:58:05.761Z,92.00
2022-08-20T02:00:29.794Z,92.82
2022-08-20T02:02:53.475Z,93.16
2022-08-20T02:05:18.094Z,93.10
2022-08-20T02:07:41.935Z,93.08
2022-08-20T02:10:08.299Z,94.87
2022-08-20T02:12:31.951Z,94.00
2022-08-20T02:14:57.444Z,93.61
2022-08-20T02:17:23.706Z,91.28
2022-08-20T02:19:51.056Z,92.54
2022-08-20T02:22:22.133Z,91.56
2022-08-20T02:24:45.896Z,93.01
2022-08-20T02:27:09.517Z,91.62
2022-08-20T02:29:33.294Z,95.19
2022-08-20T02:32:24.450Z,92.48
2022-08-20T02:34:42.285Z,94.18
2022-08-20T02:37:08.707Z,94.12
2022-08-20T02:39:32.715Z,90.99
2022-08-20T02:41:56.453Z,92.12
2022-08-20T02:44:21.072Z,90.52
2022-08-20T02:46:44.695Z,91.57
2022-08-20T02:49:09.822Z,93.20
2022-08-20T02:51:33.446Z,93.13
2022-08-20T02:53:57.144Z,90.79
2022-08-20T02:56:21.029Z,92.20
2022-08-20T02:58:44.918Z,94.63
2022-08-20T03:01:19.169Z,91.50
2022-08-20T03:03:44.379Z,92.36
2022-08-20T03:06:11.151Z,90.91
2022-08-20T03:08:35.275Z,93.03
2022-08-20T03:10:59.130Z,92.18
2022-08-20T03:13:24.412Z,92.58
2022-08-20T03:15:57.941Z,92.89
2022-08-20T03:18:24.146Z,91.55
2022-08-20T03:20:52.109Z,92.15
2022-08-20T03:23:19.896Z,94.24
2022-08-20T03:25:44.034Z,92.83
2022-08-20T03:28:08.491Z,94.08
2022-08-20T03:30:33.082Z,93.41
2022-08-20T03:32:57.279Z,92.73
2022-08-20T03:35:25.058Z,94.61
2022-08-20T03:37:48.941Z,92.09
2022-08-20T03:40:19.794Z,92.66
2022-08-20T03:42:43.648Z,93.83
2022-08-20T03:45:09.187Z,92.55
2022-08-20T03:47:32.915Z,93.61
2022-08-20T03:50:00.444Z,95.71
2022-08-20T03:52:24.115Z,93.80
2022-08-20T03:54:47.747Z,92.94
2022-08-20T03:57:15.594Z,93.41
2022-08-20T03:59:39.242Z,95.14
2022-08-20T04:02:02.965Z,95.57
2022-08-20T04:04:26.789Z,96.22
2022-08-20T04:06:50.550Z,96.07
2022-08-20T04:09:14.496Z,96.08
2022-08-20T04:11:38.247Z,96.74
2022-08-20T04:14:03.239Z,96.10
2022-08-20T04:16:28.580Z,96.45
2022-08-20T04:19:01.335Z,93.92
2022-08-20T04:21:26.415Z,96.29
2022-08-20T04:23:56.670Z,95.01
2022-08-20T04:26:21.695Z,93.74
2022-08-20T04:28:45.327Z,96.28
2022-08-20T04:31:12.980Z,97.12
2022-08-20T04:33:36.632Z,93.48
2022-08-20T04:36:02.812Z,93.28
2022-08-20T04:38:26.455Z,95.68
2022-08-20T04:41:10.103Z,94.16
2022-08-20T04:43:46.190Z,97.61
2022-08-20T04:46:11.684Z,94.63
2022-08-20T04:48:36.139Z,94.84
2022-08-20T04:51:02.554Z,95.39
2022-08-20T04:53:30.111Z,95.44
2022-08-20T04:55:55.678Z,93.95
2022-08-20T04:58:23.095Z,96.92
2022-08-20T05:00:49.257Z,96.90
2022-08-20T05:03:14.368Z,97.62
2022-08-20T05:05:38.283Z,97.12
2022-08-20T05:08:02.719Z,96.82
2022-08-20T05:10:26.859Z,96.13
2022-08-20T05:12:56.715Z,95.79
2022-08-20T05:15:21.809Z,96.51
2022-08-20T05:17:45.671Z,93.57
2022-08-20T05:20:16.610Z,95.24
2022-08-20T05:22:40.387Z,95.69
2022-08-20T05:25:04.477Z,94.30
2022-08-20T05:27:28.256Z,92.36
2022-08-20T05:29:53.432Z,94.50
2022-08-20T05:32:17.939Z,93.51
2022-08-20T05:34:41.592Z,93.90
2022-08-20T05:37:07.723Z,92.91
2022-08-20T05:39:35.490Z,94.53
2022-08-20T05:42:01.084Z,94.33
2022-08-20T05:44:24.715Z,94.95
2022-08-20T05:46:49.651Z,94.54
2022-08-20T05:49:22.589Z,94.63
2022-08-20T05:51:46.668Z,94.86
2022-08-20T05:54:12.467Z,94.37
2022-08-20T05:56:37.340Z,94.62
2022-08-20T05:59:03.976Z,94.02
2022-08-20T06:01:27.740Z,94.09
2022-08-20T06:04:08.720Z,93.96
2022-08-20T06:06:44.659Z,92.06
2022-08-20T06:09:12.111Z,94.64
2022-08-20T06:11:37.419Z,92.90
2022-08-20T06:14:01.566Z,92.69
2022-08-20T06:16:25.175Z,93.74
2022-08-20T06:18:52.820Z,92.37
2022-08-20T06:21:21.724Z,90.44
2022-08-20T06:23:56.451Z,91.82
2022-08-20T06:26:24.167Z,91.88
2022-08-20T06:28:54.096Z,92.09
2022-08-20T06:31:17.855Z,92.42
2022-08-20T06:33:42.467Z,91.56
2022-08-20T06:36:07.083Z,92.06
2022-08-20T06:38:32.646Z,90.74
2022-08-20T06:40:56.247Z,91.54
2022-08-20T06:43:21.502Z,90.48
2022-08-20T06:45:45.139Z,89.92
2022-08-20T06:48:15.374Z,91.26
2022-08-20T06:50:47.972Z,88.22
2022-08-20T06:53:14.736Z,90.64
2022-08-20T06:55:41.700Z,91.08
2022-08-20T06:58:30.464Z,90.11
2022-08-20T07:01:04.924Z,91.16
2022-08-20T07:03:34.449Z,92.04
2022-08-20T07:05:59.366Z,91.65
2022-08-20T07:08:23.212Z,91.33
2022-08-20T07:10:47.203Z,90.70
2022-08-20T07:13:11.548Z,88.43
2022-08-20T07:15:35.356Z,90.10
2022-08-20T07:18:04.763Z,89.73
2022-08-20T07:20:29.499Z,89.87
2022-08-20T07:22:53.308Z,90.15
2022-08-20T07:25:22.574Z,89.68
2022-08-20T07:27:47.235Z,90.46
2022-08-20T07:30:32.391Z,88.10
2022-08-20T07:33:17.737Z,89.20
2022-08-20T07:35:42.566Z,88.19
2022-08-20T07:38:07.388Z,89.69
2022-08-20T07:40:36.148Z,90.35
2022-08-20T07:43:02.999Z,88.66
2022-08-20T07:45:27.464Z,87.00
2022-08-20T07:47:53.655Z,88.38
2022-08-20T07:50:21.979Z,89.00
2022-08-20T07:52:45.747Z,87.95
2022-08-20T07:55:12.827Z,86.03
2022-08-20T07:57:36.523Z,88.63
2022-08-20T08:00:00.448Z,88.48
2022-08-20T08:02:24.252Z,90.63
2022-08-20T08:04:47.843Z,90.77
2022-08-20T08:07:13.111Z,90.09
2022-08-20T08:09:37.486Z,91.16
2022-08-20T08:12:03.077Z,90.11
2022-08-20T08:14:31.537Z,89.58
2022-08-20T08:16:57.349Z,88.92
2022-08-20T08:19:21.452Z,89.68
2022-08-20T08:21:45.589Z,90.16
2022-08-20T08:24:11.702Z,91.11
2022-08-20T08:26:37.287Z,88.72
2022-08-20T08:29:00.903Z,90.32
2022-08-20T08:31:25.696Z,90.35
2022-08-20T08:33:49.302Z,90.21
2022-08-20T08:36:16.334Z,88.57
2022-08-20T08:38:45.163Z,88.83
2022-08-20T08:41:19.118Z,89.20
2022-08-20T08:43:43.524Z,88.63
2022-08-20T08:46:12.434Z,87.16
2022-08-20T08:48:39.719Z,88.93
2022-08-20T08:51:07.564Z,88.79
2022-08-20T08:53:38.119Z,86.93
2022-08-20T08:56:03.103Z,86.98
2022-08-20T08:58:28.182Z,87.16
2022-08-20T09:00:56.088Z,88.67
2022-08-20T09:03:29.375Z,85.67
2022-08-20T09:05:58.592Z,87.36
2022-08-20T09:08:28.012Z,86.14
2022-08-20T09:10:52.311Z,86.18
2022-08-20T09:13:15.980Z,87.09
2022-08-20T09:15:40.987Z,85.88
2022-08-20T09:18:04.784Z,84.68
2022-08-20T09:20:28.702Z,85.66
2022-08-20T09:22:52.476Z,84.61
2022-08-20T09:25:16.277Z,85.59
2022-08-20T09:27:39.935Z,84.01
2022-08-20T09:30:08.983Z,84.54
2022-08-20T09:32:34.088Z,83.82
2022-08-20T09:34:58.962Z,83.00
2022-08-20T09:37:23.456Z,83.69
2022-08-20T09:39:48.655Z,84.08
2022-08-20T09:42:14.843Z,84.34
2022-08-20T09:44:38.732Z,84.35
2022-08-20T09:47:02.387Z,84.81
2022-08-20T09:49:27.463Z,84.15
2022-08-20T09:51:51.235Z,83.75
2022-08-20T09:54:15.056Z,84.79
2022-08-20T09:56:38.723Z,82.56
2022-08-20T09:59:03.016Z,82.39
2022-08-20T10:01:26.848Z,86.12
2022-08-20T10:03:51.406Z,82.87
2022-08-20T10:06:17.913Z,82.86
2022-08-20T10:08:41.742Z,82.71
2022-08-20T10:11:05.556Z,82.27
2022-08-20T10:13:29.182Z,83.18
2022-08-20T10:15:52.843Z,83.47
2022-08-20T10:18:16.554Z,79.00
2022-08-20T10:20:40.332Z,80.70
2022-08-20T10:23:06.312Z,80.17
2022-08-20T10:25:30.051Z,79.34
2022-08-20T10:27:53.762Z,80.07
2022-08-20T10:30:17.556Z,77.24
2022-08-20T10:32:41.198Z,78.10
2022-08-20T10:35:06.568Z,78.88
2022-08-20T10:37:30.240Z,76.59
2022-08-20T10:39:55.982Z,73.98
2022-08-20T10:42:19.735Z,74.07
2022-08-20T10:44:43.619Z,73.90
2022-08-20T10:47:17.966Z,74.68
2022-08-20T10:49:41.696Z,71.68
2022-08-20T10:52:06.200Z,70.57
2022-08-20T10:54:29.913Z,72.05
2022-08-20T10:56:54.931Z,70.59
2022-08-20T10:59:19.856Z,70.45
2022-08-20T11:01:43.498Z,73.18
2022-08-20T11:04:07.254Z,71.56
2022-08-20T11:06:32.092Z,72.24
2022-08-20T11:08:56.996Z,70.69
2022-08-20T11:11:20.850Z,69.77
2022-08-20T11:13:45.887Z,67.07
2022-08-20T11:16:09.548Z,66.02
2022-08-20T11:18:34.149Z,71.05
2022-08-20T11:20:58.085Z,67.43
2022-08-20T11:23:21.817Z,67.22
2022-08-20T11:25:45.475Z,64.71
2022-08-20T11:28:09.354Z,66.17
2022-08-20T11:30:37.395Z,61.75
2022-08-20T11:33:02.931Z,64.89
2022-08-20T11:35:48.979Z,66.88
2022-08-20T11:38:12.473Z,65.62
2022-08-20T11:40:36.132Z,64.09
2022-08-20T11:43:17.011Z,65.88
2022-08-20T11:45:43.378Z,67.59
2022-08-20T11:48:07.199Z,67.83
2022-08-20T11:50:30.881Z,65.37
2022-08-20T11:52:54.486Z,63.99
2022-08-20T11:55:19.336Z,65.58
2022-08-20T11:57:48.815Z,65.27
2022-08-20T12:00:17.087Z,66.35
2022-08-20T12:02:42.910Z,65.42
2022-08-20T12:05:08.510Z,65.91
2022-08-20T12:07:32.124Z,64.31
2022-08-20T12:09:55.927Z,62.51
2022-08-20T12:12:23.376Z,65.66
2022-08-20T12:14:47.130Z,63.93
2022-08-20T12:17:11.616Z,63.88
2022-08-20T12:19:39.344Z,63.18
2022-08-20T12:22:21.308Z,63.39
2022-08-20T12:24:47.187Z,62.84
2022-08-20T12:27:12.527Z,63.02
2022-08-20T12:29:36.227Z,63.59
2022-08-20T12:32:00.880Z,62.81
2022-08-20T12:34:24.563Z,62.45
2022-08-20T12:36:49.577Z,63.66
2022-08-20T12:39:13.288Z,64.18
2022-08-20T12:41:36.931Z,61.49
2022-08-20T12:44:04.935Z,63.04
2022-08-20T12:46:28.576Z,64.45
2022-08-20T12:48:53.490Z,63.67
2022-08-20T12:51:17.102Z,65.50
2022-08-20T12:53:42.134Z,66.36
2022-08-20T12:56:06.810Z,65.71
2022-08-20T12:58:30.506Z,67.41
2022-08-20T13:00:54.271Z,67.15
2022-08-20T13:03:17.955Z,67.68
2022-08-20T13:05:42.441Z,67.37
2022-08-20T13:08:09.385Z,67.21
2022-08-20T13:10:37.325Z,66.88
2022-08-20T13:13:03.106Z,68.06
2022-08-20T13:15:27.481Z,67.73
2022-08-20T13:17:53.793Z,67.32
2022-08-20T13:20:20.015Z,68.93
2022-08-20T13:22:44.432Z,67.82
2022-08-20T13:25:10.348Z,68.14
2022-08-20T13:27:38.341Z,67.23
2022-08-20T13:30:01.971Z,68.39
2022-08-20T13:32:25.722Z,68.17
2022-08-20T13:34:49.447Z,67.96
2022-08-20T13:37:15.007Z,68.97
2022-08-20T13:39:40.741Z,69.17
2022-08-20T13:42:04.524Z,68.11
2022-08-20T13:44:32.940Z,71.50
2022-08-20T13:46:57.059Z,70.58
2022-08-20T13:49:20.692Z,68.67
2022-08-20T13:51:44.407Z,69.93
2022-08-20T13:54:10.840Z,69.42
2022-08-20T13:56:34.868Z,70.10
2022-08-20T13:58:58.504Z,71.40
2022-08-20T14:01:23.632Z,71.04
2022-08-20T14:03:47.893Z,72.34
2022-08-20T14:06:12.330Z,73.06
2022-08-20T14:08:35.959Z,72.61
2022-08-20T14:10:59.714Z,72.20
2022-08-20T14:13:26.215Z,73.01
2022-08-20T14:15:49.994Z,73.74
2022-08-20T14:18:16.700Z,74.91
2022-08-20T14:20:40.492Z,75.45
2022-08-20T14:23:04.656Z,75.69
2022-08-20T14:25:29.092Z,76.87
2022-08-20T14:27:53.400Z,75.80
2022-08-20T14:30:21.719Z,74.87
2022-08-20T14:32:45.480Z,76.96
2022-08-20T14:35:11.912Z,76.34
2022-08-20T14:37:39.062Z,76.10
2022-08-20T14:40:07.467Z,76.98
2022-08-20T14:42:31.894Z,78.63
2022-08-20T14:44:56.464Z,77.64
2022-08-20T14:47:23.230Z,76.75
2022-08-20T14:49:48.252Z,77.83
2022-08-20T14:52:14.270Z,82.49
2022-08-20T14:54:38.211Z,81.12
2022-08-20T14:57:02.352Z,81.47
2022-08-20T14:59:26.037Z,79.21
2022-08-20T15:01:49.671Z,80.88
2022-08-20T15:04:13.359Z,79.22
2022-08-20T15:06:38.724Z,79.66
2022-08-20T15:09:03.891Z,79.27
2022-08-20T15:11:33.601Z,79.36
2022-08-20T15:13:58.214Z,78.76
2022-08-20T15:16:21.839Z,78.80
2022-08-20T15:18:45.557Z,77.38
2022-08-20T15:21:10.293Z,81.35
2022-08-20T15:23:34.065Z,80.86
2022-08-20T15:25:59.291Z,82.46
2022-08-20T15:28:23.036Z,83.59
2022-08-20T15:30:46.665Z,82.85
2022-08-20T15:33:11.809Z,81.75
2022-08-20T15:35:35.466Z,80.74
2022-08-20T15:38:00.766Z,80.45
2022-08-20T15:40:28.472Z,79.85
2022-08-20T15:42:53.897Z,79.74
2022-08-20T15:45:21.680Z,81.71
2022-08-20T15:48:01.087Z,81.15
2022-08-20T15:50:45.478Z,78.79
2022-08-20T15:53:19.130Z,80.59
2022-08-20T15:55:55.371Z,78.74
2022-08-20T15:58:32.896Z,81.74
2022-08-20T16:01:24.509Z,78.81
2022-08-20T16:04:29.979Z,77.85
2022-08-20T16:06:59.140Z,80.34
2022-08-20T16:09:48.710Z,79.81
2022-08-20T16:12:19.035Z,79.15
2022-08-20T16:14:48.483Z,80.43
2022-08-20T16:17:17.155Z,80.64
2022-08-20T16:19:54.364Z,81.16
2022-08-20T16:22:20.951Z,78.97
2022-08-20T16:24:44.667Z,80.06
2022-08-20T16:27:15.991Z,82.24
2022-08-20T16:29:52.454Z,81.66
2022-08-20T16:32:34.827Z,81.50
2022-08-20T16:35:05.488Z,81.81
2022-08-20T16:37:47.067Z,79.82
2022-08-20T16:40:24.349Z,79.26
2022-08-20T16:42:52.302Z,80.11
2022-08-20T16:45:22.995Z,80.86
2022-08-20T16:47:49.075Z,80.83
2022-08-20T16:50:19.887Z,80.15
2022-08-20T16:52:46.901Z,80.16
2022-08-20T16:55:10.823Z,80.29
2022-08-20T16:57:34.579Z,80.00
2022-08-20T17:00:12.412Z,79.83
2022-08-20T17:02:38.618Z,80.98
2022-08-20T17:05:06.665Z,79.99
2022-08-20T17:07:49.413Z,81.25
2022-08-20T17:10:22.333Z,82.22
2022-08-20T17:12:47.087Z,83.21
2022-08-20T17:15:23.910Z,81.26
2022-08-20T17:17:49.119Z,82.32
2022-08-20T17:20:20.574Z,83.31
2022-08-20T17:22:48.539Z,83.31
2022-08-20T17:25:19.642Z,85.05
2022-08-20T17:27:43.339Z,85.77
2022-08-20T17:30:22.727Z,84.31
2022-08-20T17:33:00.654Z,85.53
2022-08-20T17:35:32.146Z,84.48
2022-08-20T17:37:56.710Z,83.68
2022-08-20T17:40:27.625Z,83.78
2022-08-20T17:42:56.964Z,84.51
2022-08-20T17:45:26.431Z,83.93
2022-08-20T17:47:50.233Z,82.93
2022-08-20T17:50:22.000Z,82.05
2022-08-20T17:52:50.725Z,84.83
2022-08-20T17:55:14.988Z,84.19
2022-08-20T17:57:43.962Z,82.12
2022-08-20T18:00:14.353Z,82.88
2022-08-20T18:02:38.003Z,83.24
2022-08-20T18:05:02.164Z,82.69
2022-08-20T18:07:31.307Z,82.73
2022-08-20T18:10:01.744Z,81.78
2022-08-20T18:12:35.350Z,82.99
2022-08-20T18:15:07.745Z,82.38
2022-08-20T18:17:58.083Z,83.92
2022-08-20T18:21:10.671Z,82.71
2022-08-20T18:23:41.334Z,84.03
2022-08-20T18:26:11.360Z,81.99
2022-08-20T18:31:07.509Z,82.27
2022-08-20T18:33:37.435Z,82.89
2022-08-20T18:36:09.641Z,84.29
2022-08-20T18:38:37.273Z,83.34
2022-08-20T18:41:10.291Z,83.28
2022-08-20T18:43:34.093Z,82.59
2022-08-20T18:45:57.967Z,82.09
2022-08-20T18:48:23.556Z,82.81
2022-08-20T18:50:55.141Z,84.94
2022-08-20T18:53:22.440Z,85.45
2022-08-20T18:56:00.132Z,85.50
2022-08-20T18:58:33.540Z,84.95
2022-08-20T19:00:57.390Z,85.39
2022-08-20T19:03:27.680Z,86.71
2022-08-20T19:06:21.037Z,86.40
2022-08-20T19:08:51.371Z,87.40
2022-08-20T19:11:43.287Z,86.50
2022-08-20T19:14:47.867Z,85.56
2022-08-20T19:17:18.128Z,85.34
2022-08-20T19:19:42.044Z,84.90
2022-08-20T19:22:06.599Z,87.20
2022-08-20T19:24:35.783Z,85.28
2022-08-20T19:27:05.596Z,86.43
2022-08-20T19:29:32.467Z,87.37
2022-08-20T19:32:00.083Z,89.24
2022-08-20T19:34:25.873Z,87.63
2022-08-20T19:36:56.578Z,88.45
2022-08-20T19:39:25.543Z,87.51
2022-08-20T19:41:57.029Z,85.55
2022-08-20T19:44:35.312Z,86.91
2022-08-20T19:47:00.086Z,86.85
2022-08-20T19:49:31.502Z,86.91
2022-08-20T19:52:13.816Z,86.81
2022-08-20T19:54:49.321Z,86.95
2022-08-20T19:57:13.355Z,85.81
2022-08-20T19:59:38.395Z,86.76
2022-08-20T20:02:20.425Z,85.81
2022-08-20T20:04:55.033Z,85.42
2022-08-20T20:07:23.388Z,87.87
2022-08-20T20:09:48.913Z,86.89
2022-08-20T20:12:22.584Z,87.47
2022-08-20T20:14:49.041Z,87.43
2022-08-20T20:17:22.949Z,87.79
2022-08-20T20:19:47.850Z,89.83
2022-08-20T20:22:19.626Z,88.11
2022-08-20T20:24:48.580Z,88.18
2022-08-20T20:27:21.718Z,88.53
2022-08-20T20:29:47.350Z,89.71
2022-08-20T20:32:20.953Z,89.93
2022-08-20T20:34:54.958Z,87.38
2022-08-20T20:37:44.637Z,86.82
2022-08-20T20:40:25.266Z,87.29
2022-08-20T20:43:01.867Z,87.78
2022-08-20T20:45:34.665Z,88.63
2022-08-20T20:47:58.543Z,86.76
2022-08-20T20:50:32.661Z,87.77
2022-08-20T20:52:57.226Z,87.99
2022-08-20T20:55:27.592Z,86.35
2022-08-20T20:57:51.775Z,87.17
2022-08-20T21:00:18.288Z,88.02
2022-08-20T21:02:44.024Z,88.60
2022-08-20T21:05:08.629Z,86.92
2022-08-20T21:07:32.323Z,88.59
2022-08-20T21:09:58.318Z,87.67
2022-08-20T21:12:22.387Z,88.15
2022-08-20T21:14:46.176Z,88.90
2022-08-20T21:17:14.586Z,88.85
2022-08-20T21:19:41.120Z,88.93
2022-08-20T21:22:09.312Z,88.42
2022-08-20T21:24:33.010Z,88.66
2022-08-20T21:26:58.495Z,87.10
2022-08-20T21:29:30.553Z,86.69
2022-08-20T21:31:56.400Z,87.46
2022-08-20T21:34:20.886Z,89.85
2022-08-20T21:36:46.650Z,89.53
2022-08-20T21:39:10.961Z,89.63
2022-08-20T21:41:35.491Z,90.05
2022-08-20T21:44:00.411Z,90.85
2022-08-20T21:46:25.236Z,89.83
2022-08-20T21:48:48.921Z,87.35
2022-08-20T21:51:12.598Z,90.04
2022-08-20T21:53:37.784Z,89.65
2022-08-20T21:56:01.487Z,88.93
2022-08-20T21:58:25.527Z,88.20
2022-08-20T22:00:55.250Z,87.66
2022-08-20T22:03:20.059Z,88.19
2022-08-20T22:05:44.182Z,89.87
2022-08-20T22:08:09.511Z,89.94
2022-08-20T22:10:34.617Z,90.46
2022-08-20T22:12:58.382Z,87.44
2022-08-20T22:15:22.228Z,87.99
2022-08-20T22:17:45.965Z,88.34
2022-08-20T22:20:11.043Z,87.99
2022-08-20T22:22:34.991Z,88.42
2022-08-20T22:24:58.686Z,87.98
2022-08-20T22:27:23.816Z,88.88
2022-08-20T22:29:47.430Z,87.66
2022-08-20T22:32:11.230Z,88.71
2022-08-20T22:34:36.967Z,86.61
2022-08-20T22:37:02.095Z,89.45
2022-08-20T22:39:25.856Z,87.48
2022-08-20T22:41:49.523Z,89.12
2022-08-20T22:44:14.547Z,90.55
2022-08-20T22:46:47.083Z,88.62
2022-08-20T22:49:17.238Z,87.57
2022-08-20T22:51:43.488Z,87.87
2022-08-20T22:54:10.333Z,90.55
2022-08-20T22:56:34.054Z,88.94
2022-08-20T22:58:59.549Z,89.15
2022-08-20T23:01:24.774Z,86.92
2022-08-20T23:03:48.511Z,88.87
2022-08-20T23:06:13.841Z,89.64
2022-08-20T23:08:37.930Z,89.86
2022-08-20T23:11:01.558Z,89.96
2022-08-20T23:13:25.198Z,88.17
2022-08-20T23:15:48.869Z,87.80
2022-08-20T23:18:17.902Z,91.08
2022-08-20T23:20:42.806Z,88.91
2022-08-20T23:23:07.751Z,90.21
2022-08-20T23:25:31.543Z,87.79
2022-08-20T23:28:04.206Z,86.10
2022-08-20T23:30:29.375Z,87.30
2022-08-20T23:32:53.404Z,87.15
2022-08-20T23:35:18.825Z,86.63
2022-08-20T23:37:46.583Z,85.73
2022-08-20T23:40:13.258Z,87.95
2022-08-20T23:42:37.011Z,87.55
2022-08-20T23:45:01.640Z,85.46
2022-08-20T23:47:25.403Z,86.36
2022-08-20T23:49:49.150Z,86.30
2022-08-20T23:52:14.203Z,88.16
2022-08-20T23:54:37.884Z,86.82
2022-08-20T23:57:01.638Z,86.89
2022-08-20T23:59:32.022Z,88.31
